Terminal Aerodrome Forecast
Issued by NWS Lake Charles, LA

Home | Current Version | Previous Version | Text Only | Print | Product List | Glossary On
Versions: 1 2 3 4 5 6 7 8 9 10 11 12 13 14 15 16 17 18 19 20 21 22
000
FTUS44 KLCH 080730 AAA
TAFAEX
TAF AMD
KAEX 080730Z 0808/0906 01008KT P6SM VCSH FEW012 OVC045
      TEMPO 0808/0812 5SM -RA BR OVC025
     FM081200 02008KT P6SM VCSH OVC015
     FM081500 01014G19KT P6SM OVC024
     FM082100 02013G18KT P6SM SCT250=

USA.gov is the U.S. government's official web portal to all federal, state and local government web resources and services.